sensor_id;sensor_type;location;lat;lon;timestamp;P1;durP1;ratioP1;P2;durP2;ratioP2
25247;SDS011;13191;47.472;11.214;2022-11-30T00:02:22;0.95;;;0.70;;
25247;SDS011;13191;47.472;11.214;2022-11-30T00:04:48;1.23;;;0.70;;
25247;SDS011;13191;47.472;11.214;2022-11-30T00:07:13;1.42;;;0.80;;
25247;SDS011;13191;47.472;11.214;2022-11-30T00:09:39;0.93;;;0.60;;
25247;SDS011;13191;47.472;11.214;2022-11-30T00:12:04;1.55;;;0.68;;
25247;SDS011;13191;47.472;11.214;2022-11-30T00:14:30;1.95;;;0.60;;
25247;SDS011;13191;47.472;11.214;2022-11-30T00:16:56;1.10;;;0.63;;
25247;SDS011;13191;47.472;11.214;2022-11-30T00:19:21;0.70;;;0.50;;
25247;SDS011;13191;47.472;11.214;2022-11-30T00:21:47;1.33;;;0.57;;
25247;SDS011;13191;47.472;11.214;2022-11-30T00:24:13;1.27;;;0.77;;
25247;SDS011;13191;47.472;11.214;2022-11-30T00:26:38;0.90;;;0.52;;
25247;SDS011;13191;47.472;11.214;2022-11-30T00:29:04;1.38;;;0.52;;
25247;SDS011;13191;47.472;11.214;2022-11-30T00:31:30;1.30;;;0.68;;
25247;SDS011;13191;47.472;11.214;2022-11-30T00:33:55;1.48;;;0.70;;
25247;SDS011;13191;47.472;11.214;2022-11-30T00:36:21;0.75;;;0.50;;
25247;SDS011;13191;47.472;11.214;2022-11-30T00:38:47;1.25;;;0.65;;
25247;SDS011;13191;47.472;11.214;2022-11-30T00:41:14;1.10;;;0.63;;
25247;SDS011;13191;47.472;11.214;2022-11-30T00:43:39;0.93;;;0.50;;
25247;SDS011;13191;47.472;11.214;2022-11-30T00:46:05;0.73;;;0.52;;
25247;SDS011;13191;47.472;11.214;2022-11-30T00:48:33;1.20;;;0.70;;
25247;SDS011;13191;47.472;11.214;2022-11-30T00:50:59;0.70;;;0.50;;
25247;SDS011;13191;47.472;11.214;2022-11-30T00:53:24;0.80;;;0.50;;
25247;SDS011;13191;47.472;11.214;2022-11-30T00:55:50;1.20;;;0.55;;
25247;SDS011;13191;47.472;11.214;2022-11-30T00:58:16;2.95;;;0.90;;
25247;SDS011;13191;47.472;11.214;2022-11-30T01:00:42;1.42;;;0.70;;
25247;SDS011;13191;47.472;11.214;2022-11-30T01:03:08;1.15;;;0.70;;
25247;SDS011;13191;47.472;11.214;2022-11-30T01:05:34;2.30;;;0.77;;
25247;SDS011;13191;47.472;11.214;2022-11-30T01:08:01;0.80;;;0.60;;
25247;SDS011;13191;47.472;11.214;2022-11-30T01:10:27;1.63;;;0.73;;
25247;SDS011;13191;47.472;11.214;2022-11-30T01:12:53;1.55;;;0.75;;
25247;SDS011;13191;47.472;11.214;2022-11-30T01:15:19;0.77;;;0.60;;
25247;SDS011;13191;47.472;11.214;2022-11-30T01:17:45;0.77;;;0.50;;
25247;SDS011;13191;47.472;11.214;2022-11-30T01:20:11;1.35;;;0.60;;
25247;SDS011;13191;47.472;11.214;2022-11-30T01:22:36;0.68;;;0.38;;
25247;SDS011;13191;47.472;11.214;2022-11-30T01:25:02;1.10;;;0.60;;
25247;SDS011;13191;47.472;11.214;2022-11-30T01:27:28;0.85;;;0.52;;
25247;SDS011;13191;47.472;11.214;2022-11-30T01:29:55;1.52;;;0.90;;
25247;SDS011;13191;47.472;11.214;2022-11-30T01:32:20;1.10;;;0.60;;
25247;SDS011;13191;47.472;11.214;2022-11-30T01:34:46;4.57;;;0.40;;
25247;SDS011;13191;47.472;11.214;2022-11-30T01:37:11;1.38;;;0.75;;
25247;SDS011;13191;47.472;11.214;2022-11-30T01:39:37;0.70;;;0.50;;
25247;SDS011;13191;47.472;11.214;2022-11-30T01:42:03;0.80;;;0.57;;
25247;SDS011;13191;47.472;11.214;2022-11-30T01:47:13;2.63;;;0.80;;
25247;SDS011;13191;47.472;11.214;2022-11-30T01:49:50;1.00;;;0.50;;
25247;SDS011;13191;47.472;11.214;2022-11-30T01:52:24;0.85;;;0.50;;
25247;SDS011;13191;47.472;11.214;2022-11-30T01:54:57;1.40;;;0.88;;
25247;SDS011;13191;47.472;11.214;2022-11-30T01:57:33;1.00;;;0.60;;
25247;SDS011;13191;47.472;11.214;2022-11-30T02:00:02;1.50;;;0.50;;
25247;SDS011;13191;47.472;11.214;2022-11-30T02:02:33;1.30;;;0.60;;
25247;SDS011;13191;47.472;11.214;2022-11-30T02:05:06;1.23;;;0.60;;
25247;SDS011;13191;47.472;11.214;2022-11-30T02:07:33;1.45;;;0.90;;
25247;SDS011;13191;47.472;11.214;2022-11-30T02:09:59;1.27;;;0.65;;
25247;SDS011;13191;47.472;11.214;2022-11-30T02:12:26;0.77;;;0.52;;
25247;SDS011;13191;47.472;11.214;2022-11-30T02:15:21;1.33;;;0.52;;
25247;SDS011;13191;47.472;11.214;2022-11-30T02:17:57;3.22;;;0.50;;
25247;SDS011;13191;47.472;11.214;2022-11-30T02:28:44;0.93;;;0.63;;
25247;SDS011;13191;47.472;11.214;2022-11-30T02:31:27;0.40;;;0.35;;
25247;SDS011;13191;47.472;11.214;2022-11-30T02:34:02;1.33;;;0.60;;
25247;SDS011;13191;47.472;11.214;2022-11-30T02:36:29;0.93;;;0.60;;
25247;SDS011;13191;47.472;11.214;2022-11-30T02:38:56;0.85;;;0.55;;
25247;SDS011;13191;47.472;11.214;2022-11-30T02:41:22;1.02;;;0.57;;
25247;SDS011;13191;47.472;11.214;2022-11-30T02:43:47;2.17;;;1.05;;
25247;SDS011;13191;47.472;11.214;2022-11-30T02:46:19;0.75;;;0.50;;
25247;SDS011;13191;47.472;11.214;2022-11-30T02:48:55;0.68;;;0.50;;
25247;SDS011;13191;47.472;11.214;2022-11-30T02:51:32;0.52;;;0.38;;
25247;SDS011;13191;47.472;11.214;2022-11-30T02:54:01;0.70;;;0.50;;
25247;SDS011;13191;47.472;11.214;2022-11-30T02:56:27;0.77;;;0.50;;
25247;SDS011;13191;47.472;11.214;2022-11-30T02:58:53;1.23;;;0.60;;
25247;SDS011;13191;47.472;11.214;2022-11-30T03:01:19;0.82;;;0.50;;
25247;SDS011;13191;47.472;11.214;2022-11-30T03:03:46;2.83;;;0.50;;
25247;SDS011;13191;47.472;11.214;2022-11-30T03:06:11;1.20;;;0.70;;
25247;SDS011;13191;47.472;11.214;2022-11-30T03:08:37;1.60;;;0.80;;
25247;SDS011;13191;47.472;11.214;2022-11-30T03:11:03;0.57;;;0.32;;
25247;SDS011;13191;47.472;11.214;2022-11-30T03:13:29;1.33;;;0.70;;
25247;SDS011;13191;47.472;11.214;2022-11-30T03:15:56;1.17;;;0.57;;
25247;SDS011;13191;47.472;11.214;2022-11-30T03:18:21;4.32;;;0.90;;
25247;SDS011;13191;47.472;11.214;2022-11-30T03:20:47;1.13;;;0.60;;
25247;SDS011;13191;47.472;11.214;2022-11-30T03:23:12;1.45;;;0.75;;
25247;SDS011;13191;47.472;11.214;2022-11-30T03:25:38;1.35;;;0.85;;
25247;SDS011;13191;47.472;11.214;2022-11-30T03:28:04;2.40;;;1.23;;
25247;SDS011;13191;47.472;11.214;2022-11-30T03:30:29;0.88;;;0.55;;
25247;SDS011;13191;47.472;11.214;2022-11-30T03:32:55;1.58;;;0.75;;
25247;SDS011;13191;47.472;11.214;2022-11-30T03:35:21;1.40;;;1.10;;
25247;SDS011;13191;47.472;11.214;2022-11-30T03:37:47;1.58;;;0.82;;
25247;SDS011;13191;47.472;11.214;2022-11-30T03:40:12;1.15;;;0.60;;
25247;SDS011;13191;47.472;11.214;2022-11-30T03:42:38;2.30;;;0.82;;
25247;SDS011;13191;47.472;11.214;2022-11-30T03:45:03;1.98;;;0.85;;
25247;SDS011;13191;47.472;11.214;2022-11-30T03:47:31;1.73;;;0.70;;
25247;SDS011;13191;47.472;11.214;2022-11-30T03:49:56;1.83;;;0.82;;
25247;SDS011;13191;47.472;11.214;2022-11-30T03:52:22;1.85;;;1.00;;
25247;SDS011;13191;47.472;11.214;2022-11-30T03:54:47;1.77;;;0.70;;
25247;SDS011;13191;47.472;11.214;2022-11-30T03:57:13;1.77;;;0.90;;
25247;SDS011;13191;47.472;11.214;2022-11-30T03:59:38;1.70;;;0.80;;
25247;SDS011;13191;47.472;11.214;2022-11-30T04:02:04;2.15;;;1.08;;
25247;SDS011;13191;47.472;11.214;2022-11-30T04:04:29;1.67;;;0.85;;
25247;SDS011;13191;47.472;11.214;2022-11-30T04:06:55;2.25;;;0.98;;
25247;SDS011;13191;47.472;11.214;2022-11-30T04:09:20;1.60;;;0.90;;
25247;SDS011;13191;47.472;11.214;2022-11-30T04:11:46;2.30;;;1.00;;
25247;SDS011;13191;47.472;11.214;2022-11-30T04:14:12;1.77;;;0.80;;
25247;SDS011;13191;47.472;11.214;2022-11-30T04:16:37;1.90;;;0.70;;
25247;SDS011;13191;47.472;11.214;2022-11-30T04:19:03;2.85;;;0.98;;
25247;SDS011;13191;47.472;11.214;2022-11-30T04:21:29;2.90;;;1.35;;
25247;SDS011;13191;47.472;11.214;2022-11-30T04:23:54;3.22;;;0.82;;
25247;SDS011;13191;47.472;11.214;2022-11-30T04:26:20;1.75;;;1.08;;
25247;SDS011;13191;47.472;11.214;2022-11-30T04:28:45;2.17;;;1.27;;
25247;SDS011;13191;47.472;11.214;2022-11-30T04:31:11;3.58;;;1.67;;
25247;SDS011;13191;47.472;11.214;2022-11-30T04:33:37;2.35;;;0.95;;
25247;SDS011;13191;47.472;11.214;2022-11-30T04:36:04;3.20;;;1.25;;
25247;SDS011;13191;47.472;11.214;2022-11-30T04:38:31;2.60;;;1.08;;
25247;SDS011;13191;47.472;11.214;2022-11-30T04:40:57;2.10;;;1.13;;
25247;SDS011;13191;47.472;11.214;2022-11-30T04:43:23;2.53;;;1.20;;
25247;SDS011;13191;47.472;11.214;2022-11-30T04:45:49;2.50;;;1.08;;
25247;SDS011;13191;47.472;11.214;2022-11-30T04:48:15;3.70;;;1.55;;
25247;SDS011;13191;47.472;11.214;2022-11-30T04:50:41;3.20;;;1.50;;
25247;SDS011;13191;47.472;11.214;2022-11-30T04:53:07;3.17;;;1.25;;
25247;SDS011;13191;47.472;11.214;2022-11-30T04:55:35;3.85;;;1.60;;
25247;SDS011;13191;47.472;11.214;2022-11-30T04:58:01;3.42;;;1.48;;
25247;SDS011;13191;47.472;11.214;2022-11-30T05:00:27;3.50;;;1.42;;
25247;SDS011;13191;47.472;11.214;2022-11-30T05:02:54;2.95;;;1.80;;
25247;SDS011;13191;47.472;11.214;2022-11-30T05:05:20;3.10;;;1.67;;
25247;SDS011;13191;47.472;11.214;2022-11-30T05:07:50;4.80;;;1.90;;
25247;SDS011;13191;47.472;11.214;2022-11-30T05:10:20;3.65;;;1.85;;
25247;SDS011;13191;47.472;11.214;2022-11-30T05:12:45;4.10;;;1.75;;
25247;SDS011;13191;47.472;11.214;2022-11-30T05:15:11;3.97;;;1.75;;
25247;SDS011;13191;47.472;11.214;2022-11-30T05:17:37;4.18;;;2.00;;
25247;SDS011;13191;47.472;11.214;2022-11-30T05:20:03;6.30;;;2.28;;
25247;SDS011;13191;47.472;11.214;2022-11-30T05:22:29;4.13;;;1.73;;
25247;SDS011;13191;47.472;11.214;2022-11-30T05:24:54;3.47;;;1.40;;
25247;SDS011;13191;47.472;11.214;2022-11-30T05:27:20;2.95;;;1.38;;
25247;SDS011;13191;47.472;11.214;2022-11-30T05:29:45;2.45;;;1.10;;
25247;SDS011;13191;47.472;11.214;2022-11-30T05:32:11;1.85;;;1.10;;
25247;SDS011;13191;47.472;11.214;2022-11-30T05:34:36;4.38;;;1.67;;
25247;SDS011;13191;47.472;11.214;2022-11-30T05:37:02;3.20;;;1.65;;
25247;SDS011;13191;47.472;11.214;2022-11-30T05:39:27;4.07;;;1.40;;
25247;SDS011;13191;47.472;11.214;2022-11-30T05:41:53;2.28;;;1.05;;
25247;SDS011;13191;47.472;11.214;2022-11-30T05:44:18;3.30;;;1.75;;
25247;SDS011;13191;47.472;11.214;2022-11-30T05:46:44;4.18;;;1.63;;
25247;SDS011;13191;47.472;11.214;2022-11-30T05:49:09;2.03;;;1.13;;
25247;SDS011;13191;47.472;11.214;2022-11-30T05:51:35;3.70;;;1.67;;
25247;SDS011;13191;47.472;11.214;2022-11-30T05:54:01;3.67;;;1.38;;
25247;SDS011;13191;47.472;11.214;2022-11-30T05:56:26;5.07;;;1.75;;
25247;SDS011;13191;47.472;11.214;2022-11-30T05:58:52;4.63;;;1.70;;
25247;SDS011;13191;47.472;11.214;2022-11-30T06:01:18;3.75;;;1.60;;
25247;SDS011;13191;47.472;11.214;2022-11-30T06:03:45;3.22;;;1.20;;
25247;SDS011;13191;47.472;11.214;2022-11-30T06:06:12;3.13;;;1.33;;
25247;SDS011;13191;47.472;11.214;2022-11-30T06:08:38;3.97;;;1.55;;
25247;SDS011;13191;47.472;11.214;2022-11-30T06:11:04;4.22;;;1.70;;
25247;SDS011;13191;47.472;11.214;2022-11-30T06:13:29;14.75;;;1.83;;
25247;SDS011;13191;47.472;11.214;2022-11-30T06:15:58;3.00;;;1.25;;
25247;SDS011;13191;47.472;11.214;2022-11-30T06:18:24;5.38;;;1.98;;
25247;SDS011;13191;47.472;11.214;2022-11-30T06:20:50;5.40;;;1.90;;
25247;SDS011;13191;47.472;11.214;2022-11-30T06:23:16;4.13;;;2.00;;
25247;SDS011;13191;47.472;11.214;2022-11-30T06:25:41;3.63;;;1.70;;
25247;SDS011;13191;47.472;11.214;2022-11-30T06:28:08;3.20;;;1.45;;
25247;SDS011;13191;47.472;11.214;2022-11-30T06:30:34;10.27;;;2.47;;
25247;SDS011;13191;47.472;11.214;2022-11-30T06:32:59;12.45;;;1.80;;
25247;SDS011;13191;47.472;11.214;2022-11-30T06:35:25;5.57;;;1.58;;
25247;SDS011;13191;47.472;11.214;2022-11-30T06:37:50;2.92;;;1.38;;
25247;SDS011;13191;47.472;11.214;2022-11-30T06:40:16;5.28;;;2.67;;
25247;SDS011;13191;47.472;11.214;2022-11-30T06:42:42;4.18;;;1.90;;
25247;SDS011;13191;47.472;11.214;2022-11-30T06:45:07;20.60;;;2.83;;
25247;SDS011;13191;47.472;11.214;2022-11-30T06:47:33;6.00;;;2.00;;
25247;SDS011;13191;47.472;11.214;2022-11-30T06:49:59;3.63;;;1.75;;
25247;SDS011;13191;47.472;11.214;2022-11-30T06:52:24;5.07;;;1.70;;
25247;SDS011;13191;47.472;11.214;2022-11-30T06:54:50;4.85;;;1.90;;
25247;SDS011;13191;47.472;11.214;2022-11-30T06:57:16;4.07;;;1.77;;
25247;SDS011;13191;47.472;11.214;2022-11-30T06:59:42;5.22;;;2.22;;
25247;SDS011;13191;47.472;11.214;2022-11-30T07:02:09;13.50;;;2.72;;
25247;SDS011;13191;47.472;11.214;2022-11-30T07:04:36;4.80;;;1.95;;
25247;SDS011;13191;47.472;11.214;2022-11-30T07:07:01;11.18;;;2.45;;
25247;SDS011;13191;47.472;11.214;2022-11-30T07:09:27;6.78;;;2.05;;
25247;SDS011;13191;47.472;11.214;2022-11-30T07:11:52;5.50;;;2.90;;
25247;SDS011;13191;47.472;11.214;2022-11-30T07:14:18;6.97;;;2.38;;
25247;SDS011;13191;47.472;11.214;2022-11-30T07:16:43;5.10;;;2.22;;
25247;SDS011;13191;47.472;11.214;2022-11-30T07:19:09;7.32;;;2.90;;
25247;SDS011;13191;47.472;11.214;2022-11-30T07:21:35;4.82;;;2.25;;
25247;SDS011;13191;47.472;11.214;2022-11-30T07:24:00;9.48;;;2.50;;
25247;SDS011;13191;47.472;11.214;2022-11-30T07:26:44;10.10;;;2.63;;
25247;SDS011;13191;47.472;11.214;2022-11-30T07:29:10;14.25;;;2.80;;
25247;SDS011;13191;47.472;11.214;2022-11-30T07:31:35;10.43;;;2.55;;
25247;SDS011;13191;47.472;11.214;2022-11-30T07:34:04;5.28;;;2.10;;
25247;SDS011;13191;47.472;11.214;2022-11-30T07:36:31;11.77;;;2.72;;
25247;SDS011;13191;47.472;11.214;2022-11-30T07:38:57;7.15;;;3.08;;
25247;SDS011;13191;47.472;11.214;2022-11-30T07:41:23;7.50;;;2.55;;
25247;SDS011;13191;47.472;11.214;2022-11-30T07:43:48;4.82;;;1.88;;
25247;SDS011;13191;47.472;11.214;2022-11-30T07:46:14;8.18;;;2.83;;
25247;SDS011;13191;47.472;11.214;2022-11-30T07:48:40;6.35;;;2.22;;
25247;SDS011;13191;47.472;11.214;2022-11-30T07:53:40;13.10;;;1.90;;
25247;SDS011;13191;47.472;11.214;2022-11-30T07:56:06;6.43;;;2.17;;
25247;SDS011;13191;47.472;11.214;2022-11-30T07:58:34;4.85;;;1.90;;
25247;SDS011;13191;47.472;11.214;2022-11-30T08:01:03;5.88;;;2.03;;
25247;SDS011;13191;47.472;11.214;2022-11-30T08:03:34;8.30;;;1.80;;
25247;SDS011;13191;47.472;11.214;2022-11-30T08:06:01;8.48;;;2.13;;
25247;SDS011;13191;47.472;11.214;2022-11-30T08:08:29;19.65;;;2.80;;
25247;SDS011;13191;47.472;11.214;2022-11-30T08:10:55;10.02;;;2.22;;
25247;SDS011;13191;47.472;11.214;2022-11-30T08:13:21;5.55;;;1.73;;
25247;SDS011;13191;47.472;11.214;2022-11-30T08:15:48;4.05;;;1.58;;
25247;SDS011;13191;47.472;11.214;2022-11-30T08:18:14;17.30;;;3.13;;
25247;SDS011;13191;47.472;11.214;2022-11-30T08:20:40;6.85;;;2.10;;
25247;SDS011;13191;47.472;11.214;2022-11-30T08:23:05;5.28;;;1.80;;
25247;SDS011;13191;47.472;11.214;2022-11-30T08:25:32;3.88;;;1.85;;
25247;SDS011;13191;47.472;11.214;2022-11-30T08:27:58;4.88;;;2.13;;
25247;SDS011;13191;47.472;11.214;2022-11-30T08:30:24;6.97;;;1.80;;
25247;SDS011;13191;47.472;11.214;2022-11-30T08:32:50;4.70;;;2.35;;
25247;SDS011;13191;47.472;11.214;2022-11-30T08:35:16;8.05;;;2.38;;
25247;SDS011;13191;47.472;11.214;2022-11-30T08:37:41;7.60;;;2.40;;
25247;SDS011;13191;47.472;11.214;2022-11-30T08:40:07;6.78;;;2.58;;
25247;SDS011;13191;47.472;11.214;2022-11-30T08:42:33;12.00;;;2.42;;
25247;SDS011;13191;47.472;11.214;2022-11-30T08:44:58;5.20;;;1.88;;
25247;SDS011;13191;47.472;11.214;2022-11-30T08:47:24;5.70;;;1.88;;
25247;SDS011;13191;47.472;11.214;2022-11-30T08:49:49;5.60;;;2.28;;
25247;SDS011;13191;47.472;11.214;2022-11-30T08:52:15;5.15;;;1.95;;
25247;SDS011;13191;47.472;11.214;2022-11-30T08:54:44;5.03;;;2.15;;
25247;SDS011;13191;47.472;11.214;2022-11-30T08:57:11;6.90;;;2.13;;
25247;SDS011;13191;47.472;11.214;2022-11-30T08:59:36;4.70;;;1.67;;
25247;SDS011;13191;47.472;11.214;2022-11-30T09:02:02;3.65;;;1.83;;
25247;SDS011;13191;47.472;11.214;2022-11-30T09:04:28;4.57;;;1.88;;
25247;SDS011;13191;47.472;11.214;2022-11-30T09:06:54;4.47;;;1.95;;
25247;SDS011;13191;47.472;11.214;2022-11-30T09:09:22;5.03;;;2.05;;
25247;SDS011;13191;47.472;11.214;2022-11-30T09:11:49;3.65;;;1.95;;
25247;SDS011;13191;47.472;11.214;2022-11-30T09:14:15;4.75;;;1.80;;
25247;SDS011;13191;47.472;11.214;2022-11-30T09:16:40;3.55;;;1.58;;
25247;SDS011;13191;47.472;11.214;2022-11-30T09:19:06;2.95;;;1.77;;
25247;SDS011;13191;47.472;11.214;2022-11-30T09:21:33;3.15;;;1.45;;
25247;SDS011;13191;47.472;11.214;2022-11-30T09:23:59;3.38;;;1.50;;
25247;SDS011;13191;47.472;11.214;2022-11-30T09:26:24;2.88;;;1.40;;
25247;SDS011;13191;47.472;11.214;2022-11-30T09:28:50;3.38;;;1.63;;
25247;SDS011;13191;47.472;11.214;2022-11-30T09:31:18;2.70;;;1.20;;
25247;SDS011;13191;47.472;11.214;2022-11-30T09:33:45;3.03;;;1.27;;
25247;SDS011;13191;47.472;11.214;2022-11-30T09:36:12;2.55;;;1.33;;
25247;SDS011;13191;47.472;11.214;2022-11-30T09:38:40;2.85;;;1.20;;
25247;SDS011;13191;47.472;11.214;2022-11-30T09:43:41;1.85;;;1.00;;
25247;SDS011;13191;47.472;11.214;2022-11-30T09:46:37;2.65;;;1.20;;
25247;SDS011;13191;47.472;11.214;2022-11-30T09:49:17;3.00;;;1.20;;
25247;SDS011;13191;47.472;11.214;2022-11-30T09:51:51;2.47;;;1.20;;
25247;SDS011;13191;47.472;11.214;2022-11-30T09:54:52;2.55;;;0.90;;
25247;SDS011;13191;47.472;11.214;2022-11-30T09:57:22;2.53;;;1.00;;
25247;SDS011;13191;47.472;11.214;2022-11-30T10:02:29;2.70;;;1.20;;
25247;SDS011;13191;47.472;11.214;2022-11-30T10:04:56;1.60;;;0.80;;
25247;SDS011;13191;47.472;11.214;2022-11-30T10:07:42;2.22;;;1.00;;
25247;SDS011;13191;47.472;11.214;2022-11-30T10:16:18;0.85;;;0.50;;
25247;SDS011;13191;47.472;11.214;2022-11-30T10:27:18;1.23;;;0.60;;
25247;SDS011;13191;47.472;11.214;2022-11-30T10:30:20;1.38;;;0.90;;
25247;SDS011;13191;47.472;11.214;2022-11-30T10:32:49;1.10;;;0.55;;
25247;SDS011;13191;47.472;11.214;2022-11-30T10:35:20;1.75;;;0.70;;
25247;SDS011;13191;47.472;11.214;2022-11-30T10:37:55;1.25;;;0.70;;
25247;SDS011;13191;47.472;11.214;2022-11-30T10:40:33;3.33;;;1.30;;
25247;SDS011;13191;47.472;11.214;2022-11-30T10:43:16;1.30;;;0.60;;
25247;SDS011;13191;47.472;11.214;2022-11-30T10:45:51;3.55;;;0.70;;
25247;SDS011;13191;47.472;11.214;2022-11-30T10:51:04;1.45;;;0.70;;
25247;SDS011;13191;47.472;11.214;2022-11-30T10:53:31;1.83;;;0.93;;
25247;SDS011;13191;47.472;11.214;2022-11-30T10:55:59;1.50;;;0.70;;
25247;SDS011;13191;47.472;11.214;2022-11-30T10:58:33;2.13;;;1.10;;
25247;SDS011;13191;47.472;11.214;2022-11-30T11:01:06;1.48;;;0.68;;
25247;SDS011;13191;47.472;11.214;2022-11-30T11:03:34;1.42;;;0.73;;
25247;SDS011;13191;47.472;11.214;2022-11-30T11:06:20;1.30;;;0.80;;
25247;SDS011;13191;47.472;11.214;2022-11-30T11:08:48;2.17;;;1.00;;
25247;SDS011;13191;47.472;11.214;2022-11-30T11:11:27;1.55;;;0.63;;
25247;SDS011;13191;47.472;11.214;2022-11-30T11:14:06;2.67;;;1.25;;
25247;SDS011;13191;47.472;11.214;2022-11-30T11:17:18;2.22;;;0.93;;
25247;SDS011;13191;47.472;11.214;2022-11-30T11:19:46;1.45;;;0.80;;
25247;SDS011;13191;47.472;11.214;2022-11-30T11:22:16;2.13;;;0.90;;
25247;SDS011;13191;47.472;11.214;2022-11-30T11:24:47;1.48;;;0.80;;
25247;SDS011;13191;47.472;11.214;2022-11-30T11:27:28;2.13;;;1.00;;
25247;SDS011;13191;47.472;11.214;2022-11-30T11:30:06;2.42;;;0.70;;
25247;SDS011;13191;47.472;11.214;2022-11-30T11:35:34;2.28;;;0.73;;
25247;SDS011;13191;47.472;11.214;2022-11-30T11:38:16;6.45;;;1.05;;
25247;SDS011;13191;47.472;11.214;2022-11-30T11:40:54;3.45;;;0.93;;
25247;SDS011;13191;47.472;11.214;2022-11-30T11:43:28;2.40;;;1.05;;
25247;SDS011;13191;47.472;11.214;2022-11-30T11:46:17;2.83;;;0.95;;
25247;SDS011;13191;47.472;11.214;2022-11-30T11:48:46;2.28;;;1.02;;
25247;SDS011;13191;47.472;11.214;2022-11-30T11:53:57;2.42;;;1.10;;
25247;SDS011;13191;47.472;11.214;2022-11-30T11:56:39;2.00;;;0.80;;
25247;SDS011;13191;47.472;11.214;2022-11-30T11:59:10;1.73;;;0.90;;
25247;SDS011;13191;47.472;11.214;2022-11-30T12:04:32;1.08;;;0.70;;
25247;SDS011;13191;47.472;11.214;2022-11-30T12:07:23;3.15;;;0.90;;
25247;SDS011;13191;47.472;11.214;2022-11-30T12:10:26;2.53;;;1.20;;
25247;SDS011;13191;47.472;11.214;2022-11-30T12:12:57;5.95;;;1.30;;
25247;SDS011;13191;47.472;11.214;2022-11-30T12:15:29;2.78;;;1.23;;
25247;SDS011;13191;47.472;11.214;2022-11-30T12:18:02;2.95;;;1.48;;
25247;SDS011;13191;47.472;11.214;2022-11-30T12:20:59;2.90;;;1.05;;
25247;SDS011;13191;47.472;11.214;2022-11-30T12:23:48;4.20;;;2.05;;
25247;SDS011;13191;47.472;11.214;2022-11-30T12:26:37;3.85;;;1.10;;
25247;SDS011;13191;47.472;11.214;2022-11-30T12:29:24;4.80;;;1.75;;
25247;SDS011;13191;47.472;11.214;2022-11-30T12:32:24;3.65;;;1.55;;
25247;SDS011;13191;47.472;11.214;2022-11-30T12:40:52;3.85;;;1.20;;
25247;SDS011;13191;47.472;11.214;2022-11-30T12:46:14;5.22;;;1.45;;
25247;SDS011;13191;47.472;11.214;2022-11-30T12:48:49;2.05;;;1.15;;
25247;SDS011;13191;47.472;11.214;2022-11-30T12:51:39;2.97;;;1.15;;
25247;SDS011;13191;47.472;11.214;2022-11-30T12:59:51;1.63;;;1.00;;
25247;SDS011;13191;47.472;11.214;2022-11-30T13:02:34;2.70;;;1.38;;
25247;SDS011;13191;47.472;11.214;2022-11-30T13:05:24;2.70;;;1.35;;
25247;SDS011;13191;47.472;11.214;2022-11-30T13:08:28;2.60;;;1.50;;
25247;SDS011;13191;47.472;11.214;2022-11-30T13:11:23;3.13;;;1.20;;
25247;SDS011;13191;47.472;11.214;2022-11-30T13:14:00;2.25;;;1.00;;
25247;SDS011;13191;47.472;11.214;2022-11-30T13:16:29;3.67;;;1.05;;
25247;SDS011;13191;47.472;11.214;2022-11-30T13:19:00;2.47;;;1.02;;
25247;SDS011;13191;47.472;11.214;2022-11-30T13:21:45;2.95;;;1.48;;
25247;SDS011;13191;47.472;11.214;2022-11-30T13:24:28;5.80;;;2.35;;
25247;SDS011;13191;47.472;11.214;2022-11-30T13:27:00;3.42;;;1.80;;
25247;SDS011;13191;47.472;11.214;2022-11-30T13:32:32;3.03;;;1.95;;
25247;SDS011;13191;47.472;11.214;2022-11-30T13:40:41;3.38;;;1.40;;
25247;SDS011;13191;47.472;11.214;2022-11-30T13:43:24;4.50;;;1.80;;
25247;SDS011;13191;47.472;11.214;2022-11-30T13:46:06;4.40;;;2.05;;
25247;SDS011;13191;47.472;11.214;2022-11-30T13:48:39;4.43;;;2.00;;
25247;SDS011;13191;47.472;11.214;2022-11-30T13:51:08;3.53;;;1.52;;
25247;SDS011;13191;47.472;11.214;2022-11-30T13:53:34;4.60;;;2.20;;
25247;SDS011;13191;47.472;11.214;2022-11-30T14:01:47;4.38;;;1.92;;
25247;SDS011;13191;47.472;11.214;2022-11-30T14:09:14;3.75;;;1.95;;
25247;SDS011;13191;47.472;11.214;2022-11-30T14:11:42;4.80;;;2.03;;
25247;SDS011;13191;47.472;11.214;2022-11-30T14:14:31;4.60;;;1.80;;
25247;SDS011;13191;47.472;11.214;2022-11-30T14:17:14;4.15;;;1.83;;
25247;SDS011;13191;47.472;11.214;2022-11-30T14:19:45;4.30;;;1.65;;
25247;SDS011;13191;47.472;11.214;2022-11-30T14:22:14;6.13;;;2.70;;
25247;SDS011;13191;47.472;11.214;2022-11-30T14:24:43;5.78;;;2.10;;
25247;SDS011;13191;47.472;11.214;2022-11-30T14:27:15;3.50;;;1.98;;
25247;SDS011;13191;47.472;11.214;2022-11-30T14:29:44;6.97;;;1.95;;
25247;SDS011;13191;47.472;11.214;2022-11-30T14:32:39;3.75;;;1.88;;
25247;SDS011;13191;47.472;11.214;2022-11-30T14:35:13;5.45;;;2.13;;
25247;SDS011;13191;47.472;11.214;2022-11-30T14:37:45;8.10;;;2.60;;
25247;SDS011;13191;47.472;11.214;2022-11-30T14:40:16;6.13;;;2.90;;
25247;SDS011;13191;47.472;11.214;2022-11-30T14:42:50;4.80;;;2.47;;
25247;SDS011;13191;47.472;11.214;2022-11-30T14:45:21;5.10;;;2.28;;
25247;SDS011;13191;47.472;11.214;2022-11-30T14:48:11;6.53;;;2.78;;
25247;SDS011;13191;47.472;11.214;2022-11-30T14:50:57;4.55;;;2.50;;
25247;SDS011;13191;47.472;11.214;2022-11-30T14:56:33;8.25;;;2.90;;
25247;SDS011;13191;47.472;11.214;2022-11-30T14:59:21;7.68;;;2.90;;
25247;SDS011;13191;47.472;11.214;2022-11-30T15:02:02;9.55;;;3.92;;
25247;SDS011;13191;47.472;11.214;2022-11-30T15:04:29;8.15;;;3.38;;
25247;SDS011;13191;47.472;11.214;2022-11-30T15:06:56;5.97;;;2.83;;
25247;SDS011;13191;47.472;11.214;2022-11-30T15:09:24;6.43;;;3.00;;
25247;SDS011;13191;47.472;11.214;2022-11-30T15:11:53;8.10;;;2.78;;
25247;SDS011;13191;47.472;11.214;2022-11-30T15:14:20;6.55;;;2.85;;
25247;SDS011;13191;47.472;11.214;2022-11-30T15:16:50;5.65;;;2.92;;
25247;SDS011;13191;47.472;11.214;2022-11-30T15:21:54;9.57;;;2.85;;
25247;SDS011;13191;47.472;11.214;2022-11-30T15:24:21;6.47;;;2.67;;
25247;SDS011;13191;47.472;11.214;2022-11-30T15:27:00;4.65;;;2.33;;
25247;SDS011;13191;47.472;11.214;2022-11-30T15:29:41;7.78;;;3.13;;
25247;SDS011;13191;47.472;11.214;2022-11-30T15:32:20;6.47;;;3.20;;
25247;SDS011;13191;47.472;11.214;2022-11-30T15:34:54;9.75;;;2.95;;
25247;SDS011;13191;47.472;11.214;2022-11-30T15:37:32;8.18;;;3.45;;
25247;SDS011;13191;47.472;11.214;2022-11-30T15:40:03;6.35;;;2.63;;
25247;SDS011;13191;47.472;11.214;2022-11-30T15:42:32;7.32;;;2.97;;
25247;SDS011;13191;47.472;11.214;2022-11-30T15:47:49;5.35;;;3.00;;
25247;SDS011;13191;47.472;11.214;2022-11-30T15:50:37;8.15;;;2.75;;
25247;SDS011;13191;47.472;11.214;2022-11-30T15:53:22;7.40;;;2.95;;
25247;SDS011;13191;47.472;11.214;2022-11-30T15:56:23;8.38;;;2.85;;
25247;SDS011;13191;47.472;11.214;2022-11-30T15:59:06;5.07;;;2.67;;
25247;SDS011;13191;47.472;11.214;2022-11-30T16:01:55;7.05;;;2.92;;
25247;SDS011;13191;47.472;11.214;2022-11-30T16:07:29;6.13;;;2.45;;
25247;SDS011;13191;47.472;11.214;2022-11-30T16:10:03;8.15;;;2.72;;
25247;SDS011;13191;47.472;11.214;2022-11-30T16:12:31;8.45;;;3.25;;
25247;SDS011;13191;47.472;11.214;2022-11-30T16:14:56;5.85;;;3.00;;
25247;SDS011;13191;47.472;11.214;2022-11-30T16:17:22;7.00;;;3.00;;
25247;SDS011;13191;47.472;11.214;2022-11-30T16:19:47;7.57;;;2.63;;
25247;SDS011;13191;47.472;11.214;2022-11-30T16:22:14;4.50;;;2.47;;